createdAt,value
2019-01-03T00:02:07.471Z,4.70
2019-01-03T00:04:53.827Z,4.70
2019-01-03T00:07:40.795Z,4.70
2019-01-03T00:10:28.084Z,4.70
2019-01-03T00:13:16.419Z,4.80
2019-01-03T00:16:13.827Z,4.80
2019-01-03T00:19:00.619Z,4.80
2019-01-03T00:21:47.611Z,4.70
2019-01-03T00:24:38.681Z,4.70
2019-01-03T00:27:32.892Z,4.70
2019-01-03T00:30:24.304Z,4.70
2019-01-03T00:33:11.484Z,4.70
2019-01-03T00:36:02.842Z,4.70
2019-01-03T00:39:03.331Z,4.70
2019-01-03T00:42:07.136Z,4.80
2019-01-03T00:44:58.528Z,4.80
2019-01-03T00:47:52.718Z,4.80
2019-01-03T00:50:43.831Z,4.80
2019-01-03T00:53:31.085Z,4.80
2019-01-03T00:56:37.643Z,4.90
2019-01-03T00:59:35.080Z,4.90
2019-01-03T01:02:16.724Z,4.90
2019-01-03T01:05:06.991Z,4.90
2019-01-03T01:07:55.369Z,4.90
2019-01-03T01:10:42.583Z,4.90
2019-01-03T01:13:40.003Z,4.90
2019-01-03T01:16:34.396Z,4.90
2019-01-03T01:19:34.912Z,4.90
2019-01-03T01:22:26.260Z,4.90
2019-01-03T01:25:13.319Z,4.90
2019-01-03T01:27:58.700Z,4.90
2019-01-03T01:30:59.122Z,4.90
2019-01-03T01:34:04.517Z,4.90
2019-01-03T01:37:08.254Z,4.90
2019-01-03T01:39:55.152Z,4.90
2019-01-03T01:42:49.578Z,4.90
2019-01-03T01:45:50.286Z,4.90
2019-01-03T01:48:37.393Z,4.90
2019-01-03T01:51:36.416Z,4.90
2019-01-03T01:54:23.803Z,4.90
2019-01-03T01:57:31.507Z,4.90
2019-01-03T02:00:18.442Z,5.00
2019-01-03T02:03:06.829Z,5.00
2019-01-03T02:05:55.200Z,5.00
2019-01-03T02:08:42.342Z,5.00
2019-01-03T02:11:30.778Z,5.00
2019-01-03T02:14:15.888Z,5.10
2019-01-03T02:17:02.606Z,5.10
2019-01-03T02:19:49.780Z,5.10
2019-01-03T02:22:53.209Z,5.10
2019-01-03T02:25:44.649Z,5.10
2019-01-03T02:28:51.439Z,5.10
2019-01-03T02:31:48.730Z,5.10
2019-01-03T02:34:37.080Z,5.10
2019-01-03T02:37:28.515Z,5.10
2019-01-03T02:40:15.698Z,5.10
2019-01-03T02:43:05.127Z,5.10
2019-01-03T02:46:05.510Z,5.10
2019-01-03T02:48:52.723Z,5.10
2019-01-03T02:51:42.605Z,5.10
2019-01-03T02:54:30.952Z,5.10
2019-01-03T02:57:18.133Z,5.10
2019-01-03T03:00:05.204Z,5.10
2019-01-03T03:02:56.604Z,5.10
2019-01-03T03:05:47.966Z,5.20
2019-01-03T03:08:36.338Z,5.10
2019-01-03T03:11:25.600Z,5.10
2019-01-03T03:14:12.739Z,5.10
2019-01-03T03:17:00.009Z,5.10
2019-01-03T03:19:47.001Z,5.00
2019-01-03T03:22:50.483Z,5.00
2019-01-03T03:25:41.551Z,5.10
2019-01-03T03:28:32.713Z,5.10
2019-01-03T03:31:36.235Z,5.00
2019-01-03T03:34:30.422Z,5.00
2019-01-03T03:37:17.437Z,5.00
2019-01-03T03:40:07.096Z,5.00
2019-01-03T03:42:58.672Z,5.10
2019-01-03T03:45:46.084Z,5.00
2019-01-03T03:48:37.433Z,5.10
2019-01-03T03:51:25.714Z,5.10
2019-01-03T03:54:26.176Z,5.10
2019-01-03T03:57:13.550Z,5.10
2019-01-03T04:00:00.538Z,5.10
2019-01-03T04:02:47.765Z,5.10
2019-01-03T04:05:55.185Z,5.10
2019-01-03T04:08:50.356Z,5.00
2019-01-03T04:11:50.629Z,5.00
2019-01-03T04:14:37.863Z,5.00
2019-01-03T04:17:41.575Z,5.10
2019-01-03T04:20:26.900Z,5.00
2019-01-03T04:23:10.142Z,5.00
2019-01-03T04:25:57.091Z,5.00
2019-01-03T04:29:00.724Z,5.00
2019-01-03T04:31:53.172Z,5.00
2019-01-03T04:34:39.581Z,5.00
2019-01-03T04:37:30.984Z,5.10
2019-01-03T04:40:19.331Z,5.00
2019-01-03T04:43:16.774Z,5.10
2019-01-03T04:46:05.084Z,5.00
2019-01-03T04:48:52.241Z,5.10
2019-01-03T04:51:49.471Z,5.10
2019-01-03T04:54:53.222Z,5.10
2019-01-03T04:57:40.533Z,5.10
2019-01-03T05:00:27.619Z,5.10
2019-01-03T05:03:15.944Z,5.10
2019-01-03T05:06:13.151Z,5.10
2019-01-03T05:09:00.137Z,5.10
2019-01-03T05:11:57.316Z,5.10
2019-01-03T05:14:40.788Z,5.20
2019-01-03T05:17:38.308Z,5.20
2019-01-03T05:20:25.450Z,5.20
2019-01-03T05:23:16.844Z,5.20
2019-01-03T05:26:11.227Z,5.20
2019-01-03T05:28:58.414Z,5.20
2019-01-03T05:31:52.631Z,5.10
2019-01-03T05:34:39.879Z,5.10
2019-01-03T05:37:46.786Z,5.10
2019-01-03T05:40:33.685Z,5.20
2019-01-03T05:43:20.775Z,5.20
2019-01-03T05:46:17.960Z,5.20
2019-01-03T05:49:05.119Z,5.10
2019-01-03T05:52:08.780Z,5.10
2019-01-03T05:54:56.008Z,5.10
2019-01-03T05:57:43.276Z,5.10
2019-01-03T06:00:34.691Z,5.10
2019-01-03T06:03:31.864Z,5.10
2019-01-03T06:06:29.632Z,5.10
2019-01-03T06:09:21.045Z,5.00
2019-01-03T06:12:12.431Z,5.00
2019-01-03T06:14:59.675Z,5.10
2019-01-03T06:17:47.041Z,5.00
2019-01-03T06:20:33.923Z,5.10
2019-01-03T06:23:21.185Z,5.10
2019-01-03T06:26:08.484Z,5.10
2019-01-03T06:28:56.296Z,5.10
2019-01-03T06:31:47.451Z,5.10
2019-01-03T06:34:34.423Z,5.00
2019-01-03T06:37:21.950Z,5.10
2019-01-03T06:40:15.060Z,5.00
2019-01-03T06:43:06.474Z,5.00
2019-01-03T06:46:01.424Z,5.00
2019-01-03T06:48:51.579Z,5.10
2019-01-03T06:51:45.943Z,5.10
2019-01-03T06:54:40.696Z,5.10
2019-01-03T06:57:47.501Z,5.10
2019-01-03T07:00:34.481Z,5.10
2019-01-03T07:03:34.913Z,5.20
2019-01-03T07:06:22.115Z,5.20
2019-01-03T07:09:22.642Z,5.10
2019-01-03T07:12:09.675Z,5.10
2019-01-03T07:14:58.015Z,5.00
2019-01-03T07:17:39.085Z,5.00
2019-01-03T07:20:25.224Z,5.00
2019-01-03T07:23:16.512Z,5.00
2019-01-03T07:26:03.670Z,5.00
2019-01-03T07:28:50.785Z,5.00
2019-01-03T07:31:39.148Z,5.00
2019-01-03T07:34:30.334Z,5.00
2019-01-03T07:37:33.981Z,5.00
2019-01-03T07:40:25.564Z,5.00
2019-01-03T07:43:12.624Z,4.90
2019-01-03T07:46:10.251Z,4.90
2019-01-03T07:49:02.169Z,4.90
2019-01-03T07:52:08.735Z,4.90
2019-01-03T07:55:00.215Z,4.90
2019-01-03T07:57:47.498Z,5.00
2019-01-03T08:00:34.768Z,5.00
2019-01-03T08:03:22.140Z,5.00
2019-01-03T08:06:10.497Z,5.00
2019-01-03T08:09:08.145Z,5.00
2019-01-03T08:12:11.612Z,5.00
2019-01-03T08:14:59.942Z,5.00
2019-01-03T08:17:38.750Z,5.00
2019-01-03T08:20:25.940Z,5.00
2019-01-03T08:23:13.164Z,5.00
2019-01-03T08:26:04.578Z,5.10
2019-01-03T08:28:55.713Z,5.10
2019-01-03T08:31:42.964Z,5.10
2019-01-03T08:34:37.639Z,5.10
2019-01-03T08:37:24.777Z,5.20
2019-01-03T08:40:13.116Z,5.20
2019-01-03T08:43:16.625Z,5.20
2019-01-03T08:46:10.797Z,5.20
2019-01-03T08:49:00.504Z,5.20
2019-01-03T08:51:47.013Z,5.20
2019-01-03T08:54:35.500Z,5.20
2019-01-03T08:57:22.737Z,5.20
2019-01-03T09:00:20.142Z,5.30
2019-01-03T09:03:07.190Z,5.30
2019-01-03T09:05:54.152Z,5.30
2019-01-03T09:08:41.377Z,5.30
2019-01-03T09:11:45.081Z,5.30
2019-01-03T09:14:39.502Z,5.30
2019-01-03T09:17:27.862Z,5.30
2019-01-03T09:20:22.309Z,5.30
2019-01-03T09:23:16.907Z,5.30
2019-01-03T09:26:14.585Z,5.40
2019-01-03T09:29:05.774Z,5.40
2019-01-03T09:31:53.041Z,5.40
2019-01-03T09:34:54.535Z,5.50
2019-01-03T09:38:01.070Z,5.50
2019-01-03T09:40:52.218Z,5.60
2019-01-03T09:43:39.370Z,5.70
2019-01-03T09:46:08.710Z,5.70
2019-01-03T09:48:38.116Z,5.70
2019-01-03T09:51:07.498Z,5.70
2019-01-03T09:53:36.950Z,5.80
2019-01-03T09:56:06.392Z,5.80
2019-01-03T09:58:35.791Z,5.80
2019-01-03T10:01:05.206Z,5.90
2019-01-03T10:03:34.681Z,5.90
2019-01-03T10:06:04.043Z,6.00
2019-01-03T10:08:33.475Z,6.00
2019-01-03T10:11:02.867Z,6.10
2019-01-03T10:13:35.331Z,6.10
2019-01-03T10:16:04.715Z,6.20
2019-01-03T10:18:34.079Z,6.20
2019-01-03T10:21:03.476Z,6.10
2019-01-03T10:23:32.763Z,6.20
2019-01-03T10:26:02.047Z,6.20
2019-01-03T10:28:31.443Z,6.30
2019-01-03T10:31:00.747Z,6.20
2019-01-03T10:33:30.158Z,6.30
2019-01-03T10:35:59.568Z,6.30
2019-01-03T10:38:28.936Z,6.30
2019-01-03T10:40:58.304Z,6.30
2019-01-03T10:43:27.759Z,6.30
2019-01-03T10:45:57.071Z,6.30
2019-01-03T10:48:26.441Z,6.40
2019-01-03T10:50:55.891Z,6.30
2019-01-03T10:53:25.248Z,6.40
2019-01-03T10:55:54.613Z,6.40
2019-01-03T10:58:23.998Z,6.40
2019-01-03T11:00:53.346Z,6.50
2019-01-03T11:03:22.753Z,6.50
2019-01-03T11:05:52.211Z,6.50
2019-01-03T11:08:21.490Z,6.50
2019-01-03T11:10:50.873Z,6.50
2019-01-03T11:13:20.287Z,6.60
2019-01-03T11:15:49.696Z,6.60
2019-01-03T11:18:19.107Z,6.70
2019-01-03T11:20:48.470Z,6.60
2019-01-03T11:23:17.790Z,6.60
2019-01-03T11:25:47.234Z,6.60
2019-01-03T11:28:16.602Z,6.70
2019-01-03T11:30:46.030Z,6.70
2019-01-03T11:33:15.444Z,6.70
2019-01-03T11:35:44.827Z,6.70
2019-01-03T11:38:14.283Z,6.60
2019-01-03T11:40:43.789Z,6.60
2019-01-03T11:43:13.199Z,6.60
2019-01-03T11:45:42.603Z,6.60
2019-01-03T11:48:11.985Z,6.60
2019-01-03T11:50:41.362Z,6.70
2019-01-03T11:53:10.607Z,6.90
2019-01-03T11:55:40.002Z,7.00
2019-01-03T11:58:09.371Z,7.10
2019-01-03T12:00:38.767Z,7.10
2019-01-03T12:03:08.130Z,7.10
2019-01-03T12:05:38.854Z,7.10
2019-01-03T12:08:08.208Z,7.10
2019-01-03T12:10:37.617Z,7.00
2019-01-03T12:13:07.034Z,7.00
2019-01-03T12:15:36.450Z,7.10
2019-01-03T12:18:05.812Z,7.20
2019-01-03T12:20:35.262Z,7.30
2019-01-03T12:23:04.623Z,7.30
2019-01-03T12:25:34.038Z,7.20
2019-01-03T12:28:03.507Z,7.20
2019-01-03T12:30:35.869Z,7.20
2019-01-03T12:33:05.313Z,7.10
2019-01-03T12:35:35.013Z,7.10
2019-01-03T12:38:04.377Z,7.20
2019-01-03T12:40:33.781Z,7.30
2019-01-03T12:43:03.196Z,7.30
2019-01-03T12:45:32.596Z,7.40
2019-01-03T12:48:01.994Z,7.60
2019-01-03T12:50:31.400Z,7.70
2019-01-03T12:53:00.868Z,7.70
2019-01-03T12:55:33.338Z,7.60
2019-01-03T12:58:02.748Z,7.60
2019-01-03T13:00:32.193Z,7.60
2019-01-03T13:03:01.562Z,7.70
2019-01-03T13:05:31.342Z,7.60
2019-01-03T13:08:00.700Z,7.60
2019-01-03T13:10:30.124Z,7.50
2019-01-03T13:12:59.528Z,7.50
2019-01-03T13:15:28.955Z,7.50
2019-01-03T13:17:58.244Z,7.50
2019-01-03T13:20:27.625Z,7.50
2019-01-03T13:22:56.973Z,7.50
2019-01-03T13:25:26.296Z,7.50
2019-01-03T13:27:55.677Z,7.50
2019-01-03T13:30:25.134Z,7.40
2019-01-03T13:32:54.574Z,7.40
2019-01-03T13:35:24.024Z,7.30
2019-01-03T13:37:53.481Z,7.20
2019-01-03T13:40:22.905Z,7.20
2019-01-03T13:42:52.323Z,7.10
2019-01-03T13:45:21.723Z,7.10
2019-01-03T13:47:51.158Z,7.10
2019-01-03T13:50:20.554Z,7.00
2019-01-03T13:52:49.936Z,7.00
2019-01-03T13:55:19.357Z,7.00
2019-01-03T13:57:48.733Z,7.10
2019-01-03T14:00:18.097Z,7.10
2019-01-03T14:02:47.504Z,7.20
2019-01-03T14:05:16.942Z,7.10
2019-01-03T14:07:46.349Z,7.10
2019-01-03T14:10:15.843Z,7.20
2019-01-03T14:12:45.377Z,7.10
2019-01-03T14:15:15.125Z,7.10
2019-01-03T14:17:44.554Z,7.10
2019-01-03T14:20:14.731Z,7.00
2019-01-03T14:22:44.130Z,6.90
2019-01-03T14:25:13.506Z,6.80
2019-01-03T14:27:42.910Z,6.70
2019-01-03T14:30:12.398Z,6.80
2019-01-03T14:32:41.862Z,6.70
2019-01-03T14:35:11.343Z,6.60
2019-01-03T14:37:40.800Z,6.60
2019-01-03T14:40:10.267Z,6.50
2019-01-03T14:42:39.665Z,6.50
2019-01-03T14:45:09.265Z,6.40
2019-01-03T14:47:38.622Z,6.40
2019-01-03T14:50:09.936Z,6.40
2019-01-03T14:52:39.291Z,6.40
2019-01-03T14:55:09.703Z,6.30
2019-01-03T14:57:39.087Z,6.30
2019-01-03T15:00:11.494Z,6.20
2019-01-03T15:02:40.935Z,6.20
2019-01-03T15:05:13.898Z,6.20
2019-01-03T15:07:42.930Z,6.20
2019-01-03T15:10:12.355Z,6.30
2019-01-03T15:12:41.739Z,6.20
2019-01-03T15:15:11.174Z,6.30
2019-01-03T15:17:40.613Z,6.30
2019-01-03T15:20:11.506Z,6.30
2019-01-03T15:22:40.762Z,6.40
2019-01-03T15:25:10.121Z,6.30
2019-01-03T15:27:39.559Z,6.30
2019-01-03T15:30:10.589Z,6.20
2019-01-03T15:32:40.467Z,6.30
2019-01-03T15:35:09.911Z,6.20
2019-01-03T15:37:39.283Z,6.20
2019-01-03T15:40:08.699Z,6.20
2019-01-03T15:42:38.085Z,6.20
2019-01-03T15:45:08.600Z,6.20
2019-01-03T15:47:37.893Z,6.20
2019-01-03T15:50:07.930Z,6.30
2019-01-03T15:52:37.284Z,6.30
2019-01-03T15:55:06.632Z,6.30
2019-01-03T15:57:35.849Z,6.30
2019-01-03T16:00:06.803Z,6.30
2019-01-03T16:02:36.152Z,6.30
2019-01-03T16:05:05.852Z,6.30
2019-01-03T16:07:35.253Z,6.30
2019-01-03T16:10:04.725Z,6.40
2019-01-03T16:12:34.116Z,6.40
2019-01-03T16:15:03.503Z,6.40
2019-01-03T16:17:32.882Z,6.30
2019-01-03T16:20:02.254Z,6.30
2019-01-03T16:22:31.681Z,6.40
2019-01-03T16:25:01.075Z,6.40
2019-01-03T16:27:30.495Z,6.40
2019-01-03T16:29:59.778Z,6.30
2019-01-03T16:32:31.502Z,6.30
2019-01-03T16:35:00.932Z,6.30
2019-01-03T16:37:30.322Z,6.30
2019-01-03T16:39:59.656Z,6.30
2019-01-03T16:42:43.154Z,6.30
2019-01-03T16:45:13.273Z,6.30
2019-01-03T16:47:42.651Z,6.30
2019-01-03T16:50:16.613Z,6.30
2019-01-03T16:52:45.913Z,6.30
2019-01-03T16:55:15.475Z,6.30
2019-01-03T16:57:44.849Z,6.30
2019-01-03T17:00:14.279Z,6.20
2019-01-03T17:02:43.649Z,6.20
2019-01-03T17:05:13.053Z,6.20
2019-01-03T17:07:42.424Z,6.20
2019-01-03T17:10:14.703Z,6.20
2019-01-03T17:12:44.082Z,6.20
2019-01-03T17:15:13.408Z,6.20
2019-01-03T17:17:42.822Z,6.20
2019-01-03T17:20:12.396Z,6.20
2019-01-03T17:22:41.789Z,6.10
2019-01-03T17:25:13.180Z,6.10
2019-01-03T17:27:42.529Z,6.00
2019-01-03T17:30:12.586Z,6.10
2019-01-03T17:32:42.014Z,5.90
2019-01-03T17:35:12.532Z,5.90
2019-01-03T17:37:41.919Z,5.80
2019-01-03T17:40:13.277Z,5.80
2019-01-03T17:42:44.551Z,5.80
2019-01-03T17:45:13.947Z,5.70
2019-01-03T17:47:43.322Z,5.60
2019-01-03T17:50:12.978Z,5.60
2019-01-03T17:52:42.394Z,5.60
2019-01-03T17:55:11.809Z,5.60
2019-01-03T17:57:41.193Z,5.50
2019-01-03T18:00:16.427Z,5.50
2019-01-03T18:02:45.826Z,5.40
2019-01-03T18:05:17.528Z,5.40
2019-01-03T18:07:46.973Z,5.40
2019-01-03T18:10:16.372Z,5.40
2019-01-03T18:12:45.861Z,5.40
2019-01-03T18:15:15.184Z,5.40
2019-01-03T18:17:44.576Z,5.40
2019-01-03T18:20:16.024Z,5.40
2019-01-03T18:22:45.421Z,5.40
2019-01-03T18:25:14.762Z,5.40
2019-01-03T18:27:44.087Z,5.30
2019-01-03T18:30:13.775Z,5.20
2019-01-03T18:32:43.259Z,5.20
2019-01-03T18:35:12.713Z,5.10
2019-01-03T18:37:43.043Z,5.10
2019-01-03T18:40:14.839Z,5.00
2019-01-03T18:42:44.272Z,5.00
2019-01-03T18:45:18.400Z,5.00
2019-01-03T18:47:47.796Z,5.00
2019-01-03T18:50:18.958Z,5.10
2019-01-03T18:52:48.167Z,5.10
2019-01-03T18:55:17.484Z,5.10
2019-01-03T18:57:46.882Z,5.10
2019-01-03T19:00:16.284Z,5.00
2019-01-03T19:02:45.652Z,5.00
2019-01-03T19:05:15.051Z,5.00
2019-01-03T19:07:44.751Z,4.90
2019-01-03T19:10:14.202Z,4.80
2019-01-03T19:12:43.677Z,4.80
2019-01-03T19:15:13.182Z,4.70
2019-01-03T19:17:42.573Z,4.70
2019-01-03T19:20:12.301Z,4.60
2019-01-03T19:22:41.681Z,4.60
2019-01-03T19:25:13.949Z,4.50
2019-01-03T19:27:43.358Z,4.50
2019-01-03T19:30:12.763Z,4.40
2019-01-03T19:32:42.124Z,4.40
2019-01-03T19:35:11.836Z,4.40
2019-01-03T19:37:41.267Z,4.30
2019-01-03T19:40:12.660Z,4.30
2019-01-03T19:42:42.693Z,4.30
2019-01-03T19:45:12.489Z,4.20
2019-01-03T19:47:41.952Z,4.20
2019-01-03T19:50:13.582Z,4.20
2019-01-03T19:52:42.955Z,4.10
2019-01-03T19:55:12.329Z,4.10
2019-01-03T19:57:41.698Z,4.00
2019-01-03T20:00:13.623Z,4.00
2019-01-03T20:02:43.069Z,3.90
2019-01-03T20:05:12.545Z,3.80
2019-01-03T20:07:42.080Z,3.80
2019-01-03T20:10:12.452Z,3.80
2019-01-03T20:12:41.863Z,3.80
2019-01-03T20:15:12.629Z,3.80
2019-01-03T20:17:41.975Z,3.80
2019-01-03T20:20:11.476Z,3.80
2019-01-03T20:22:40.842Z,3.90
2019-01-03T20:25:11.203Z,3.90
2019-01-03T20:27:40.600Z,3.90
2019-01-03T20:30:10.505Z,3.90
2019-01-03T20:32:39.880Z,3.90
2019-01-03T20:35:09.364Z,3.90
2019-01-03T20:37:38.806Z,3.90
2019-01-03T20:40:08.867Z,3.80
2019-01-03T20:42:38.676Z,3.80
2019-01-03T20:45:09.932Z,3.70
2019-01-03T20:47:39.360Z,3.70
2019-01-03T20:50:09.658Z,3.60
2019-01-03T20:52:39.083Z,3.60
2019-01-03T20:55:08.735Z,3.60
2019-01-03T20:57:38.145Z,3.50
2019-01-03T21:00:10.366Z,3.50
2019-01-03T21:02:39.787Z,3.50
2019-01-03T21:05:09.219Z,3.50
2019-01-03T21:07:38.661Z,3.50
2019-01-03T21:10:09.912Z,3.50
2019-01-03T21:12:39.256Z,3.50
2019-01-03T21:15:11.110Z,3.40
2019-01-03T21:17:40.478Z,3.40
2019-01-03T21:20:11.143Z,3.40
2019-01-03T21:22:40.490Z,3.40
2019-01-03T21:25:10.646Z,3.30
2019-01-03T21:27:40.046Z,3.30
2019-01-03T21:30:12.570Z,3.30
2019-01-03T21:32:41.961Z,3.30
2019-01-03T21:35:11.419Z,3.30
2019-01-03T21:37:40.847Z,3.20
2019-01-03T21:40:11.403Z,3.20
2019-01-03T21:42:40.719Z,3.20
2019-01-03T21:45:10.133Z,3.20
2019-01-03T21:47:39.530Z,3.20
2019-01-03T21:50:11.394Z,3.10
2019-01-03T21:52:40.682Z,3.10
2019-01-03T21:55:10.080Z,3.10
2019-01-03T21:57:39.490Z,3.10
2019-01-03T22:00:11.504Z,3.10
2019-01-03T22:02:40.933Z,3.20
2019-01-03T22:05:10.356Z,3.20
2019-01-03T22:07:39.767Z,3.20
2019-01-03T22:10:10.549Z,3.20
2019-01-03T22:12:39.918Z,3.20
2019-01-03T22:15:10.284Z,3.30
2019-01-03T22:17:39.658Z,3.30
2019-01-03T22:20:11.571Z,3.30
2019-01-03T22:22:40.970Z,3.40
2019-01-03T22:25:10.322Z,3.40
2019-01-03T22:27:39.651Z,3.40
2019-01-03T22:30:10.822Z,3.50
2019-01-03T22:32:40.261Z,3.50
2019-01-03T22:35:09.747Z,3.50
2019-01-03T22:37:39.232Z,3.50
2019-01-03T22:40:09.399Z,3.50
2019-01-03T22:42:38.844Z,3.60
2019-01-03T22:45:10.081Z,3.60
2019-01-03T22:47:39.356Z,3.60
2019-01-03T22:50:09.865Z,3.60
2019-01-03T22:52:39.240Z,3.70
2019-01-03T22:55:08.641Z,3.80
2019-01-03T22:57:38.029Z,3.70
2019-01-03T23:00:28.163Z,3.70
2019-01-03T23:02:57.547Z,3.80
2019-01-03T23:05:26.904Z,3.80
2019-01-03T23:07:56.231Z,3.80
2019-01-03T23:10:25.641Z,3.80
2019-01-03T23:12:55.051Z,3.80
2019-01-03T23:15:24.409Z,3.90
2019-01-03T23:17:53.837Z,3.90
2019-01-03T23:20:23.205Z,3.90
2019-01-03T23:22:52.594Z,3.90
2019-01-03T23:25:21.948Z,3.90
2019-01-03T23:27:51.354Z,3.90
2019-01-03T23:30:20.791Z,4.00
2019-01-03T23:32:50.152Z,4.00
2019-01-03T23:35:19.570Z,4.00
2019-01-03T23:37:48.964Z,4.00
2019-01-03T23:40:18.312Z,4.00
2019-01-03T23:42:47.668Z,4.00
2019-01-03T23:45:18.949Z,4.10
2019-01-03T23:47:49.091Z,4.10
2019-01-03T23:50:20.925Z,4.10
2019-01-03T23:52:50.353Z,4.10
2019-01-03T23:55:19.943Z,4.10
2019-01-03T23:57:49.323Z,4.10
